createdAt,value
2022-12-15T00:01:44.858Z,56.15
2022-12-15T00:04:14.681Z,55.75
2022-12-15T00:06:41.979Z,60.50
2022-12-15T00:09:14.076Z,61.10
2022-12-15T00:11:41.625Z,58.17
2022-12-15T00:14:09.176Z,58.72
2022-12-15T00:16:36.557Z,59.88
2022-12-15T00:19:04.031Z,54.72
2022-12-15T00:21:31.483Z,52.03
2022-12-15T00:23:59.029Z,49.03
2022-12-15T00:26:26.117Z,48.78
2022-12-15T00:28:53.654Z,48.20
2022-12-15T00:31:23.432Z,49.53
2022-12-15T00:33:53.331Z,48.50
2022-12-15T00:36:20.430Z,49.88
2022-12-15T00:38:48.002Z,49.72
2022-12-15T00:41:17.554Z,48.88
2022-12-15T00:43:47.732Z,46.47
2022-12-15T00:46:15.107Z,52.80
2022-12-15T00:48:43.193Z,54.05
2022-12-15T00:51:10.609Z,56.03
2022-12-15T00:53:41.047Z,55.17
2022-12-15T00:56:10.417Z,59.03
2022-12-15T00:58:37.860Z,58.28
2022-12-15T01:01:09.377Z,57.42
2022-12-15T01:03:37.629Z,55.20
2022-12-15T01:06:16.495Z,60.00
2022-12-15T01:08:44.208Z,55.47
2022-12-15T01:11:11.336Z,57.95
2022-12-15T01:13:38.921Z,60.22
2022-12-15T01:16:12.937Z,61.92
2022-12-15T01:18:40.627Z,61.25
2022-12-15T01:21:11.693Z,63.35
2022-12-15T01:23:40.044Z,65.30
2022-12-15T01:26:07.654Z,69.90
2022-12-15T01:28:35.332Z,72.35
2022-12-15T01:31:02.554Z,70.93
2022-12-15T01:33:30.455Z,75.60
2022-12-15T01:36:01.713Z,66.75
2022-12-15T01:38:29.861Z,68.85
2022-12-15T01:41:06.192Z,67.15
2022-12-15T01:43:37.300Z,57.20
2022-12-15T01:46:12.314Z,58.75
2022-12-15T01:48:59.898Z,58.60
2022-12-15T01:51:37.609Z,57.85
2022-12-15T01:54:23.384Z,58.88
2022-12-15T01:56:57.068Z,68.43
2022-12-15T01:59:33.038Z,56.75
2022-12-15T02:02:00.570Z,63.38
2022-12-15T02:04:28.904Z,62.95
2022-12-15T02:06:55.989Z,60.13
2022-12-15T02:09:25.374Z,56.65
2022-12-15T02:12:00.967Z,51.53
2022-12-15T02:14:43.597Z,51.55
2022-12-15T02:17:31.646Z,47.17
2022-12-15T02:20:14.578Z,50.47
2022-12-15T02:23:35.992Z,49.30
2022-12-15T02:26:17.795Z,60.63
2022-12-15T02:28:47.774Z,61.90
2022-12-15T02:31:26.063Z,63.53
2022-12-15T02:34:02.712Z,63.13
2022-12-15T02:36:37.096Z,70.57
2022-12-15T02:39:05.744Z,71.85
2022-12-15T02:41:33.314Z,69.60
2022-12-15T02:44:02.579Z,68.55
2022-12-15T02:46:50.955Z,74.93
2022-12-15T02:49:44.851Z,72.05
2022-12-15T02:52:23.026Z,66.88
2022-12-15T02:55:09.130Z,63.53
2022-12-15T02:57:55.259Z,61.00
2022-12-15T03:03:12.319Z,56.17
2022-12-15T03:05:40.009Z,52.38
2022-12-15T03:08:06.981Z,48.80
2022-12-15T03:10:34.427Z,50.53
2022-12-15T03:13:01.534Z,51.17
2022-12-15T03:15:34.900Z,54.38
2022-12-15T03:18:02.860Z,48.90
2022-12-15T03:20:30.342Z,45.75
2022-12-15T03:22:57.518Z,51.83
2022-12-15T03:25:25.053Z,48.00
2022-12-15T03:27:54.400Z,52.28
2022-12-15T03:30:26.565Z,44.25
2022-12-15T03:32:53.795Z,48.33
2022-12-15T03:35:21.341Z,44.58
2022-12-15T03:37:48.446Z,46.35
2022-12-15T03:40:17.465Z,47.42
2022-12-15T03:42:45.159Z,45.75
2022-12-15T03:45:12.546Z,45.20
2022-12-15T03:47:43.052Z,47.35
2022-12-15T03:50:14.132Z,40.00
2022-12-15T03:52:41.569Z,40.50
2022-12-15T03:55:09.963Z,41.00
2022-12-15T03:57:37.078Z,40.63
2022-12-15T04:00:09.024Z,33.22
2022-12-15T04:02:36.180Z,35.92
2022-12-15T04:05:03.928Z,35.08
2022-12-15T04:07:31.070Z,36.22
2022-12-15T04:10:00.711Z,42.70
2022-12-15T04:12:30.035Z,41.90
2022-12-15T04:14:57.533Z,35.75
2022-12-15T04:17:24.641Z,40.55
2022-12-15T04:19:54.185Z,40.30
2022-12-15T04:22:21.503Z,39.33
2022-12-15T04:24:49.061Z,36.95
2022-12-15T04:27:18.642Z,37.10
2022-12-15T04:29:46.204Z,35.58
2022-12-15T04:32:15.711Z,34.38
2022-12-15T04:34:43.124Z,37.53
2022-12-15T04:37:14.469Z,38.45
2022-12-15T04:39:45.644Z,35.22
2022-12-15T04:42:13.238Z,37.28
2022-12-15T04:44:43.410Z,38.80
2022-12-15T04:47:17.342Z,37.80
2022-12-15T04:49:44.702Z,35.50
2022-12-15T04:52:11.754Z,38.58
2022-12-15T04:54:39.408Z,40.28
2022-12-15T04:57:06.644Z,36.05
2022-12-15T04:59:33.953Z,35.83
2022-12-15T05:02:01.319Z,37.42
2022-12-15T05:04:31.297Z,37.33
2022-12-15T05:07:00.881Z,38.33
2022-12-15T05:09:30.835Z,36.90
2022-12-15T05:12:00.535Z,40.63
2022-12-15T05:14:27.913Z,38.17
2022-12-15T05:16:55.510Z,40.25
2022-12-15T05:19:22.970Z,37.60
2022-12-15T05:21:52.416Z,36.78
2022-12-15T05:24:22.491Z,39.38
2022-12-15T05:26:52.870Z,40.63
2022-12-15T05:29:21.599Z,42.45
2022-12-15T05:31:48.723Z,35.92
2022-12-15T05:34:16.564Z,39.13
2022-12-15T05:36:48.631Z,41.92
2022-12-15T05:39:16.621Z,40.50
2022-12-15T05:41:43.663Z,38.35
2022-12-15T05:44:11.346Z,44.92
2022-12-15T05:46:39.104Z,37.53
2022-12-15T05:49:08.453Z,37.75
2022-12-15T05:51:39.130Z,38.78
2022-12-15T05:54:09.744Z,38.20
2022-12-15T05:56:37.232Z,40.33
2022-12-15T05:59:05.041Z,36.15
2022-12-15T06:01:32.341Z,37.38
2022-12-15T06:03:59.930Z,37.38
2022-12-15T06:06:29.258Z,35.22
2022-12-15T06:08:57.481Z,38.42
2022-12-15T06:11:27.407Z,45.20
2022-12-15T06:13:55.961Z,38.50
2022-12-15T06:16:24.951Z,35.72
2022-12-15T06:18:58.191Z,36.17
2022-12-15T06:21:29.578Z,36.58
2022-12-15T06:23:57.553Z,38.15
2022-12-15T06:26:35.131Z,36.13
2022-12-15T06:29:05.676Z,40.60
2022-12-15T06:31:36.450Z,41.47
2022-12-15T06:34:06.124Z,40.50
2022-12-15T06:36:33.333Z,42.50
2022-12-15T06:39:02.448Z,42.20
2022-12-15T06:41:30.717Z,42.20
2022-12-15T06:43:58.935Z,66.75
2022-12-15T06:46:30.630Z,38.80
2022-12-15T06:48:58.751Z,35.17
2022-12-15T06:51:27.731Z,38.08
2022-12-15T06:53:54.886Z,39.17
2022-12-15T06:56:34.125Z,34.95
2022-12-15T06:59:02.578Z,33.05
2022-12-15T07:01:33.294Z,39.08
2022-12-15T07:04:01.206Z,37.28
2022-12-15T07:06:34.010Z,35.90
2022-12-15T07:09:01.148Z,35.20
2022-12-15T07:11:28.519Z,37.95
2022-12-15T07:13:55.657Z,36.70
2022-12-15T07:16:23.501Z,36.17
2022-12-15T07:18:50.736Z,35.75
2022-12-15T07:21:18.319Z,36.97
2022-12-15T07:23:54.868Z,37.58
2022-12-15T07:26:24.019Z,34.55
2022-12-15T07:28:51.651Z,35.53
2022-12-15T07:31:19.064Z,35.60
2022-12-15T07:33:48.733Z,39.50
2022-12-15T07:36:16.517Z,36.78
2022-12-15T07:38:43.652Z,36.30
2022-12-15T07:41:13.453Z,39.38
2022-12-15T07:43:40.624Z,40.03
2022-12-15T07:46:08.069Z,41.40
2022-12-15T07:48:35.957Z,37.83
2022-12-15T07:51:12.443Z,42.78
2022-12-15T07:53:47.252Z,43.70
2022-12-15T07:56:17.593Z,42.38
2022-12-15T07:58:44.849Z,45.83
2022-12-15T08:01:13.776Z,41.72
2022-12-15T08:03:41.755Z,38.30
2022-12-15T08:06:14.256Z,39.42
2022-12-15T08:08:43.173Z,37.63
2022-12-15T08:11:13.029Z,32.53
2022-12-15T08:16:29.463Z,37.97
2022-12-15T08:18:56.944Z,33.97
2022-12-15T08:21:24.524Z,32.75
2022-12-15T08:23:51.754Z,33.95
2022-12-15T08:26:26.798Z,33.80
2022-12-15T08:29:31.931Z,33.78
2022-12-15T08:31:51.122Z,31.45
2022-12-15T08:34:18.556Z,32.40
2022-12-15T08:36:48.282Z,31.90
2022-12-15T08:39:17.647Z,32.85
2022-12-15T08:41:47.929Z,31.48
2022-12-15T08:44:17.246Z,36.13
2022-12-15T08:46:44.674Z,30.50
2022-12-15T08:49:16.492Z,30.42
2022-12-15T08:51:50.135Z,33.88
2022-12-15T08:54:20.386Z,30.33
2022-12-15T08:56:47.886Z,28.42
2022-12-15T08:59:15.029Z,28.08
2022-12-15T09:01:42.725Z,28.85
2022-12-15T09:04:14.585Z,32.58
2022-12-15T09:06:44.555Z,33.05
2022-12-15T09:09:17.814Z,27.48
2022-12-15T09:11:48.265Z,25.50
2022-12-15T09:14:16.522Z,27.15
2022-12-15T09:16:44.448Z,28.35
2022-12-15T09:19:14.188Z,26.67
2022-12-15T09:21:41.565Z,22.38
2022-12-15T09:24:18.342Z,21.85
2022-12-15T09:26:52.263Z,23.52
2022-12-15T09:29:21.894Z,23.02
2022-12-15T09:31:49.250Z,21.83
2022-12-15T09:34:18.548Z,22.60
2022-12-15T09:36:50.463Z,25.83
2022-12-15T09:39:17.493Z,26.85
2022-12-15T09:41:52.656Z,28.00
2022-12-15T09:44:24.789Z,26.60
2022-12-15T09:47:04.019Z,25.55
2022-12-15T09:49:55.260Z,26.42
2022-12-15T09:52:28.684Z,27.80
2022-12-15T09:55:01.079Z,27.73
2022-12-15T10:00:14.122Z,31.60
2022-12-15T10:03:00.544Z,32.15
2022-12-15T10:08:53.938Z,30.15
2022-12-15T10:11:38.921Z,27.75
2022-12-15T10:14:12.385Z,23.08
2022-12-15T10:17:06.967Z,24.13
2022-12-15T10:19:40.200Z,23.45
2022-12-15T10:22:22.717Z,23.60
2022-12-15T10:28:01.997Z,21.75
2022-12-15T10:30:29.814Z,23.88
2022-12-15T10:32:57.112Z,24.38
2022-12-15T10:35:34.620Z,24.80
2022-12-15T10:38:06.646Z,24.83
2022-12-15T10:46:33.659Z,25.25
2022-12-15T10:49:24.862Z,25.30
2022-12-15T10:51:56.481Z,21.80
2022-12-15T10:54:26.845Z,21.67
2022-12-15T10:56:59.771Z,23.13
2022-12-15T11:02:24.076Z,23.42
2022-12-15T11:05:11.148Z,22.77
2022-12-15T11:07:41.353Z,19.58
2022-12-15T11:10:20.221Z,18.17
2022-12-15T11:13:14.258Z,16.92
2022-12-15T11:15:45.713Z,19.80
2022-12-15T11:18:58.795Z,20.98
2022-12-15T11:21:32.724Z,20.33
2022-12-15T11:24:12.643Z,21.92
2022-12-15T11:26:52.115Z,23.38
2022-12-15T11:29:38.523Z,24.52
2022-12-15T11:32:07.547Z,26.05
2022-12-15T11:34:45.308Z,24.65
2022-12-15T11:37:32.271Z,27.05
2022-12-15T11:40:35.166Z,31.00
2022-12-15T11:43:11.508Z,30.58
2022-12-15T11:45:49.073Z,30.80
2022-12-15T11:48:33.922Z,28.52
2022-12-15T11:51:14.579Z,25.83
2022-12-15T11:53:47.341Z,29.08
2022-12-15T11:56:34.325Z,28.85
2022-12-15T11:59:31.894Z,27.02
2022-12-15T12:02:08.020Z,38.03
2022-12-15T12:04:53.316Z,31.05
2022-12-15T12:07:35.704Z,30.38
2022-12-15T12:10:19.033Z,29.95
2022-12-15T12:13:00.113Z,31.15
2022-12-15T12:16:18.187Z,28.75
2022-12-15T12:19:19.286Z,29.63
2022-12-15T12:21:51.137Z,29.08
2022-12-15T12:24:28.439Z,29.77
2022-12-15T12:27:09.249Z,27.30
2022-12-15T12:30:00.793Z,27.73
2022-12-15T12:32:33.709Z,26.80
2022-12-15T12:35:32.710Z,27.40
2022-12-15T12:38:06.812Z,31.80
2022-12-15T12:40:52.121Z,26.08
2022-12-15T12:43:35.071Z,25.15
2022-12-15T12:46:35.988Z,30.88
2022-12-15T12:49:34.557Z,26.40
2022-12-15T12:52:04.320Z,24.27
2022-12-15T12:54:34.514Z,27.38
2022-12-15T12:57:30.976Z,27.17
2022-12-15T13:00:00.747Z,27.40
2022-12-15T13:02:28.519Z,25.80
2022-12-15T13:04:58.754Z,22.80
2022-12-15T13:07:34.969Z,27.70
2022-12-15T13:10:07.714Z,30.83
2022-12-15T13:12:52.331Z,29.20
2022-12-15T13:15:35.175Z,27.88
2022-12-15T13:18:24.819Z,27.33
2022-12-15T13:20:58.255Z,27.08
2022-12-15T13:23:26.428Z,26.85
2022-12-15T13:25:56.527Z,27.98
2022-12-15T13:28:36.320Z,26.33
2022-12-15T13:31:18.333Z,30.23
2022-12-15T13:33:52.028Z,29.50
2022-12-15T13:36:37.839Z,32.92
2022-12-15T13:39:11.614Z,27.65
2022-12-15T13:42:32.237Z,32.42
2022-12-15T13:44:54.446Z,33.10
2022-12-15T13:47:29.956Z,24.25
2022-12-15T13:50:13.034Z,33.38
2022-12-15T13:53:17.793Z,30.15
2022-12-15T13:55:51.282Z,31.85
2022-12-15T13:58:19.379Z,29.50
2022-12-15T14:00:57.689Z,30.88
2022-12-15T14:03:27.399Z,32.08
2022-12-15T14:05:59.983Z,34.65
2022-12-15T14:08:31.019Z,31.73
2022-12-15T14:11:16.464Z,32.10
2022-12-15T14:13:54.252Z,30.95
2022-12-15T14:16:23.080Z,30.35
2022-12-15T14:19:17.465Z,30.92
2022-12-15T14:21:55.034Z,35.50
2022-12-15T14:24:38.548Z,31.48
2022-12-15T14:27:07.005Z,35.25
2022-12-15T14:29:38.888Z,32.53
2022-12-15T14:32:08.693Z,30.88
2022-12-15T14:34:43.478Z,36.20
2022-12-15T14:37:20.070Z,34.80
2022-12-15T14:39:50.108Z,41.88
2022-12-15T14:42:24.889Z,49.88
2022-12-15T14:48:06.091Z,50.13
2022-12-15T14:50:45.685Z,55.67
2022-12-15T14:53:17.600Z,51.00
2022-12-15T14:55:44.853Z,55.35
2022-12-15T14:58:35.211Z,50.70
2022-12-15T15:01:03.563Z,48.35
2022-12-15T15:03:10.970Z,25.23
2022-12-15T15:03:11.381Z,24.77
2022-12-15T15:03:36.991Z,47.72
2022-12-15T15:06:04.360Z,39.20
2022-12-15T15:08:36.857Z,50.03
2022-12-15T15:11:35.275Z,49.30
2022-12-15T15:14:08.782Z,56.03
2022-12-15T15:16:36.157Z,52.10
2022-12-15T15:19:04.769Z,62.08
2022-12-15T15:21:36.983Z,56.45
2022-12-15T15:24:10.346Z,54.95
2022-12-15T15:26:40.135Z,59.97
2022-12-15T15:29:36.614Z,57.53
2022-12-15T15:32:22.999Z,52.72
2022-12-15T15:34:50.468Z,53.95
2022-12-15T15:37:25.064Z,53.30
2022-12-15T15:39:54.518Z,49.03
2022-12-15T15:42:21.823Z,47.67
2022-12-15T15:44:49.146Z,65.57
2022-12-15T15:47:25.420Z,81.03
2022-12-15T15:49:54.540Z,77.85
2022-12-15T15:52:22.359Z,78.32
2022-12-15T15:54:50.141Z,72.55
2022-12-15T15:57:18.765Z,69.22
2022-12-15T15:59:46.423Z,68.35
2022-12-15T16:02:14.501Z,71.07
2022-12-15T16:04:43.741Z,91.32
2022-12-15T16:07:29.306Z,111.35
2022-12-15T16:09:57.385Z,149.48
2022-12-15T16:12:28.125Z,186.27
2022-12-15T16:14:56.345Z,211.82
2022-12-15T16:17:26.981Z,226.38
2022-12-15T16:19:54.299Z,270.23
2022-12-15T16:22:22.438Z,280.08
2022-12-15T16:24:50.097Z,289.42
2022-12-15T16:27:17.228Z,288.65
2022-12-15T16:29:44.602Z,286.70
2022-12-15T16:32:12.172Z,285.80
2022-12-15T16:34:39.537Z,288.23
2022-12-15T16:37:10.575Z,263.30
2022-12-15T16:39:38.255Z,247.40
2022-12-15T16:42:09.194Z,241.00
2022-12-15T16:44:36.525Z,215.75
2022-12-15T16:47:03.811Z,223.18
2022-12-15T16:49:35.102Z,226.90
2022-12-15T16:52:18.391Z,214.68
2022-12-15T16:54:48.780Z,235.00
2022-12-15T16:57:15.965Z,214.77
2022-12-15T16:59:43.504Z,201.30
2022-12-15T17:02:29.639Z,202.65
2022-12-15T17:04:57.786Z,216.85
2022-12-15T17:07:27.786Z,226.50
2022-12-15T17:09:55.864Z,224.27
2022-12-15T17:12:25.843Z,232.00
2022-12-15T17:14:53.508Z,230.52
2022-12-15T17:17:22.897Z,232.48
2022-12-15T17:20:28.541Z,221.38
2022-12-15T17:22:39.911Z,211.13
2022-12-15T17:25:28.404Z,224.50
2022-12-15T17:28:07.655Z,247.52
2022-12-15T17:30:35.295Z,247.98
2022-12-15T17:33:23.941Z,281.45
2022-12-15T17:36:17.299Z,287.60
2022-12-15T17:38:44.455Z,304.67
2022-12-15T17:41:42.293Z,320.90
2022-12-15T17:44:35.759Z,308.90
2022-12-15T17:47:06.441Z,297.02
2022-12-15T17:49:38.081Z,294.52
2022-12-15T17:52:30.351Z,314.20
2022-12-15T17:54:57.961Z,312.02
2022-12-15T17:57:25.728Z,298.88
2022-12-15T17:59:53.248Z,320.90
2022-12-15T18:02:20.993Z,295.00
2022-12-15T18:04:50.706Z,283.92
2022-12-15T18:07:21.447Z,271.02
2022-12-15T18:09:52.287Z,269.17
2022-12-15T18:12:24.777Z,274.13
2022-12-15T18:14:54.995Z,299.95
2022-12-15T18:17:22.784Z,296.45
2022-12-15T18:19:49.922Z,294.45
2022-12-15T18:22:22.793Z,295.40
2022-12-15T18:24:52.665Z,324.65
2022-12-15T18:27:29.251Z,379.30
2022-12-15T18:29:57.166Z,367.35
2022-12-15T18:32:27.200Z,365.35
2022-12-15T18:34:54.955Z,371.02
2022-12-15T18:37:23.972Z,385.30
2022-12-15T18:39:51.111Z,387.80
2022-12-15T18:42:20.704Z,399.25
2022-12-15T18:44:52.504Z,375.55
2022-12-15T18:47:23.121Z,371.70
2022-12-15T18:49:50.890Z,340.13
2022-12-15T18:52:21.155Z,317.60
2022-12-15T18:54:50.343Z,315.48
2022-12-15T18:57:33.927Z,306.17
2022-12-15T19:00:13.333Z,318.63
2022-12-15T19:02:42.002Z,329.48
2022-12-15T19:05:11.528Z,295.70
2022-12-15T19:07:39.069Z,297.15
2022-12-15T19:10:06.827Z,287.88
2022-12-15T19:12:34.262Z,308.42
2022-12-15T19:15:01.424Z,334.75
2022-12-15T19:17:31.637Z,351.95
2022-12-15T19:19:58.790Z,309.98
2022-12-15T19:22:26.245Z,311.08
2022-12-15T19:24:56.184Z,330.33
2022-12-15T19:27:24.745Z,325.15
2022-12-15T19:29:53.044Z,295.55
2022-12-15T19:32:24.048Z,310.65
2022-12-15T19:34:51.445Z,315.80
2022-12-15T19:37:31.021Z,316.65
2022-12-15T19:40:01.954Z,336.52
2022-12-15T19:42:36.588Z,331.50
2022-12-15T19:45:19.506Z,325.77
2022-12-15T19:47:47.131Z,359.42
2022-12-15T19:50:29.217Z,347.27
2022-12-15T19:52:59.869Z,345.30
2022-12-15T19:55:33.980Z,340.80
2022-12-15T19:58:25.276Z,366.10
2022-12-15T20:01:00.266Z,377.57
2022-12-15T20:03:31.017Z,355.33
2022-12-15T20:05:59.884Z,353.30
2022-12-15T20:08:34.058Z,348.20
2022-12-15T20:11:01.566Z,345.67
2022-12-15T20:13:28.840Z,342.75
2022-12-15T20:15:56.866Z,336.98
2022-12-15T20:18:26.460Z,334.55
2022-12-15T20:20:53.881Z,324.88
2022-12-15T20:23:26.611Z,318.75
2022-12-15T20:25:55.110Z,324.02
2022-12-15T20:28:30.074Z,336.60
2022-12-15T20:30:57.848Z,324.92
2022-12-15T20:33:27.434Z,323.35
2022-12-15T20:35:57.346Z,325.13
2022-12-15T20:38:31.404Z,331.55
2022-12-15T20:41:02.571Z,326.38
2022-12-15T20:43:31.692Z,336.63
2022-12-15T20:46:17.440Z,317.23
2022-12-15T20:48:48.652Z,311.60
2022-12-15T20:51:29.860Z,325.48
2022-12-15T20:54:01.464Z,331.90
2022-12-15T20:56:29.115Z,322.67
2022-12-15T20:58:58.206Z,325.73
2022-12-15T21:01:29.169Z,304.48
2022-12-15T21:03:58.152Z,307.77
2022-12-15T21:06:26.306Z,299.30
2022-12-15T21:08:54.612Z,341.70
2022-12-15T21:11:35.062Z,330.52
2022-12-15T21:14:02.257Z,335.95
2022-12-15T21:16:32.656Z,352.50
2022-12-15T21:19:19.645Z,349.05
2022-12-15T21:21:55.232Z,349.13
2022-12-15T21:24:28.546Z,342.08
2022-12-15T21:26:56.497Z,350.98
2022-12-15T21:29:28.099Z,357.25
2022-12-15T21:31:55.580Z,359.35
2022-12-15T21:34:23.067Z,359.38
2022-12-15T21:36:55.300Z,371.90
2022-12-15T21:39:35.332Z,381.35
2022-12-15T21:42:16.219Z,379.52
2022-12-15T21:44:43.392Z,389.02
2022-12-15T21:47:25.457Z,399.42
2022-12-15T21:49:52.708Z,400.08
2022-12-15T21:52:25.601Z,425.67
2022-12-15T21:54:54.957Z,396.88
2022-12-15T21:57:24.606Z,402.27
2022-12-15T21:59:51.622Z,388.65
2022-12-15T22:02:26.742Z,386.75
2022-12-15T22:04:54.862Z,384.33
2022-12-15T22:07:25.114Z,393.80
2022-12-15T22:09:52.485Z,381.20
2022-12-15T22:12:23.903Z,378.75
2022-12-15T22:14:51.663Z,381.50
2022-12-15T22:17:21.193Z,375.42
2022-12-15T22:19:48.525Z,352.77
2022-12-15T22:22:18.107Z,333.63
2022-12-15T22:24:47.359Z,324.95
2022-12-15T22:27:22.564Z,288.75
2022-12-15T22:29:52.258Z,289.52
2022-12-15T22:32:22.255Z,300.10
2022-12-15T22:34:49.262Z,280.83
2022-12-15T22:37:19.027Z,276.23
2022-12-15T22:39:46.145Z,278.10
2022-12-15T22:42:17.112Z,268.67
2022-12-15T22:44:45.264Z,274.77
2022-12-15T22:47:12.912Z,266.88
2022-12-15T22:49:40.860Z,267.48
2022-12-15T22:52:19.659Z,276.60
2022-12-15T22:54:47.230Z,285.83
2022-12-15T22:57:23.631Z,283.75
2022-12-15T22:59:57.361Z,282.85
2022-12-15T23:04:52.763Z,222.25
2022-12-15T23:07:22.478Z,223.80
2022-12-15T23:09:50.744Z,203.77
2022-12-15T23:12:18.233Z,205.18
2022-12-15T23:14:45.306Z,199.45
2022-12-15T23:17:15.125Z,197.85
2022-12-15T23:19:46.061Z,200.65
2022-12-15T23:22:13.934Z,206.77
2022-12-15T23:24:40.979Z,202.30
2022-12-15T23:27:11.998Z,191.82
2022-12-15T23:29:39.113Z,186.85
2022-12-15T23:32:06.655Z,208.27
2022-12-15T23:34:33.919Z,170.57
2022-12-15T23:37:01.259Z,175.38
2022-12-15T23:39:28.304Z,174.05
2022-12-15T23:41:55.714Z,171.63
2022-12-15T23:44:25.289Z,182.05
2022-12-15T23:46:52.728Z,172.35
2022-12-15T23:49:19.865Z,196.65
2022-12-15T23:51:49.785Z,203.45
2022-12-15T23:54:16.910Z,214.32
2022-12-15T23:56:46.802Z,222.65
2022-12-15T23:59:13.941Z,218.88
